createdAt,value
2017-09-20T00:00:17.018Z,75.70
2017-09-20T00:02:45.119Z,75.00
2017-09-20T00:05:13.987Z,76.50
2017-09-20T00:07:42.531Z,75.30
2017-09-20T00:10:10.610Z,75.00
2017-09-20T00:12:40.207Z,75.80
2017-09-20T00:15:08.309Z,76.10
2017-09-20T00:17:37.162Z,76.20
2017-09-20T00:20:06.030Z,76.40
2017-09-20T00:22:35.258Z,76.50
2017-09-20T00:25:03.775Z,76.50
2017-09-20T00:27:31.882Z,76.70
2017-09-20T00:30:00.739Z,77.50
2017-09-20T00:32:28.822Z,77.30
2017-09-20T00:34:56.975Z,77.60
2017-09-20T00:37:25.063Z,77.80
2017-09-20T00:39:53.151Z,78.50
2017-09-20T00:42:21.259Z,78.60
2017-09-20T00:44:49.362Z,78.70
2017-09-20T00:47:18.240Z,78.40
2017-09-20T00:49:46.743Z,78.80
2017-09-20T00:52:14.830Z,78.10
2017-09-20T00:54:42.938Z,78.40
2017-09-20T00:57:11.796Z,79.00
2017-09-20T00:59:39.883Z,78.30
2017-09-20T01:02:08.002Z,78.30
2017-09-20T01:04:36.096Z,77.80
2017-09-20T01:07:04.185Z,77.50
2017-09-20T01:09:32.287Z,77.00
2017-09-20T01:12:01.159Z,77.80
2017-09-20T01:14:29.274Z,77.10
2017-09-20T01:16:57.359Z,76.00
2017-09-20T01:19:25.456Z,77.10
2017-09-20T01:22:05.559Z,75.80
2017-09-20T01:24:33.661Z,77.00
2017-09-20T01:27:01.770Z,77.40
2017-09-20T01:29:29.851Z,78.20
2017-09-20T01:31:58.367Z,77.60
2017-09-20T01:34:26.457Z,78.10
2017-09-20T01:36:55.311Z,77.30
2017-09-20T01:39:24.181Z,79.20
2017-09-20T01:41:52.339Z,77.50
2017-09-20T01:44:20.449Z,77.80
2017-09-20T01:46:49.303Z,79.00
2017-09-20T01:49:17.407Z,78.90
2017-09-20T01:51:45.911Z,79.70
2017-09-20T01:54:14.033Z,79.20
2017-09-20T01:56:42.119Z,79.00
2017-09-20T01:59:10.201Z,78.10
2017-09-20T02:01:39.077Z,79.80
2017-09-20T02:04:13.691Z,80.10
2017-09-20T02:06:41.803Z,78.60
2017-09-20T02:09:10.649Z,77.90
2017-09-20T02:11:38.766Z,78.50
2017-09-20T02:14:07.613Z,79.80
2017-09-20T02:16:35.697Z,78.90
2017-09-20T02:19:03.818Z,78.20
2017-09-20T02:21:31.898Z,79.10
2017-09-20T02:24:00.039Z,79.90
2017-09-20T02:26:28.882Z,81.00
2017-09-20T02:28:56.962Z,81.50
2017-09-20T02:31:25.061Z,81.40
2017-09-20T02:33:53.161Z,80.70
2017-09-20T02:36:21.300Z,80.50
2017-09-20T02:38:49.357Z,81.20
2017-09-20T02:41:17.475Z,80.80
2017-09-20T02:43:46.322Z,82.50
2017-09-20T02:46:14.402Z,82.00
2017-09-20T02:48:42.502Z,83.10
2017-09-20T02:51:11.361Z,83.80
2017-09-20T02:53:39.447Z,83.20
2017-09-20T02:56:07.538Z,83.30
2017-09-20T02:58:36.398Z,83.80
2017-09-20T03:01:04.941Z,83.40
2017-09-20T03:03:33.021Z,83.90
2017-09-20T03:06:02.239Z,84.50
2017-09-20T03:08:36.682Z,85.00
2017-09-20T03:11:10.334Z,85.10
2017-09-20T03:13:44.222Z,85.20
2017-09-20T03:16:18.878Z,84.70
2017-09-20T03:18:53.373Z,84.10
2017-09-20T03:21:27.234Z,83.60
2017-09-20T03:24:01.490Z,83.70
2017-09-20T03:26:35.381Z,83.30
2017-09-20T03:29:09.650Z,82.60
2017-09-20T03:31:43.362Z,83.00
2017-09-20T03:34:17.906Z,83.20
2017-09-20T03:36:51.606Z,82.70
2017-09-20T03:39:26.236Z,83.30
2017-09-20T03:41:54.347Z,82.80
2017-09-20T03:44:23.198Z,83.00
2017-09-20T03:46:51.678Z,81.80
2017-09-20T03:49:19.792Z,81.40
2017-09-20T03:51:48.284Z,81.70
2017-09-20T03:54:17.137Z,82.70
2017-09-20T03:56:45.995Z,82.00
2017-09-20T03:59:14.111Z,81.70
2017-09-20T04:01:42.958Z,81.60
2017-09-20T04:04:11.438Z,81.60
2017-09-20T04:06:39.558Z,81.30
2017-09-20T04:09:08.402Z,81.90
2017-09-20T04:11:36.510Z,81.10
2017-09-20T04:14:04.594Z,80.60
2017-09-20T04:16:33.458Z,80.40
2017-09-20T04:19:01.561Z,79.60
2017-09-20T04:21:30.415Z,79.50
2017-09-20T04:23:58.518Z,78.70
2017-09-20T04:26:27.365Z,79.90
2017-09-20T04:28:55.483Z,78.60
2017-09-20T04:31:24.330Z,79.60
2017-09-20T04:33:52.418Z,78.70
2017-09-20T04:36:20.922Z,78.30
2017-09-20T04:38:49.790Z,77.70
2017-09-20T04:41:17.874Z,77.20
2017-09-20T04:43:45.982Z,77.60
2017-09-20T04:46:14.105Z,77.60
2017-09-20T04:48:42.194Z,77.60
2017-09-20T04:51:10.302Z,76.90
2017-09-20T04:53:39.151Z,77.50
2017-09-20T04:56:07.271Z,76.70
2017-09-20T04:58:35.359Z,76.60
2017-09-20T05:01:03.438Z,77.90
2017-09-20T05:03:31.933Z,78.50
2017-09-20T05:06:00.042Z,78.80
2017-09-20T05:08:28.918Z,79.00
2017-09-20T05:10:57.003Z,77.00
2017-09-20T05:13:25.869Z,76.80
2017-09-20T05:15:53.962Z,75.50
2017-09-20T05:18:22.829Z,77.80
2017-09-20T05:20:51.702Z,77.10
2017-09-20T05:23:19.794Z,77.20
2017-09-20T05:25:47.919Z,76.00
2017-09-20T05:28:16.006Z,77.10
2017-09-20T05:30:45.239Z,78.80
2017-09-20T05:33:13.353Z,81.20
2017-09-20T05:35:42.199Z,81.30
2017-09-20T05:38:10.286Z,80.00
2017-09-20T05:40:38.396Z,80.70
2017-09-20T05:43:06.516Z,78.90
2017-09-20T05:45:34.601Z,79.20
2017-09-20T05:48:02.681Z,80.50
2017-09-20T05:50:30.793Z,81.00
2017-09-20T05:52:58.887Z,81.00
2017-09-20T05:55:27.365Z,81.50
2017-09-20T05:57:55.474Z,80.40
2017-09-20T06:00:23.562Z,80.00
2017-09-20T06:02:52.423Z,80.70
2017-09-20T06:05:20.529Z,80.30
2017-09-20T06:07:49.389Z,79.50
2017-09-20T06:10:17.479Z,78.90
2017-09-20T06:12:46.351Z,79.10
2017-09-20T06:15:14.437Z,80.10
2017-09-20T06:17:43.310Z,79.50
2017-09-20T06:20:11.395Z,79.40
2017-09-20T06:22:39.486Z,79.90
2017-09-20T06:25:09.092Z,81.10
2017-09-20T06:27:37.998Z,80.40
2017-09-20T06:30:06.088Z,76.80
2017-09-20T06:32:34.591Z,76.50
2017-09-20T06:35:02.681Z,78.30
2017-09-20T06:37:30.838Z,77.80
2017-09-20T06:39:59.643Z,79.50
2017-09-20T06:42:27.761Z,80.00
2017-09-20T06:44:56.610Z,80.70
2017-09-20T06:47:24.693Z,80.70
2017-09-20T06:49:52.803Z,80.80
2017-09-20T06:52:20.890Z,81.20
2017-09-20T06:54:50.505Z,81.10
2017-09-20T06:57:18.592Z,79.70
2017-09-20T06:59:46.726Z,79.20
2017-09-20T07:02:15.187Z,78.10
2017-09-20T07:04:43.672Z,77.90
2017-09-20T07:07:12.553Z,77.80
2017-09-20T07:09:40.634Z,76.20
2017-09-20T07:12:09.498Z,73.70
2017-09-20T07:14:38.011Z,72.60
2017-09-20T07:17:06.496Z,72.10
2017-09-20T07:19:35.367Z,73.60
2017-09-20T07:22:03.485Z,73.40
2017-09-20T07:24:31.586Z,72.20
2017-09-20T07:26:59.710Z,73.40
2017-09-20T07:29:27.798Z,70.90
2017-09-20T07:31:56.646Z,70.20
2017-09-20T07:34:24.750Z,70.20
2017-09-20T07:36:52.833Z,69.40
2017-09-20T07:39:21.718Z,70.30
2017-09-20T07:41:49.797Z,69.80
2017-09-20T07:44:17.878Z,69.20
2017-09-20T07:46:47.117Z,68.10
2017-09-20T07:49:15.593Z,65.70
2017-09-20T07:51:43.694Z,65.70
2017-09-20T07:54:12.566Z,64.50
2017-09-20T07:56:40.647Z,63.60
2017-09-20T07:59:09.522Z,65.10
2017-09-20T08:01:37.609Z,65.00
2017-09-20T08:04:05.691Z,64.30
2017-09-20T08:06:34.558Z,66.20
2017-09-20T08:09:02.651Z,67.30
2017-09-20T08:11:31.526Z,67.10
2017-09-20T08:14:00.374Z,68.90
2017-09-20T08:16:28.490Z,68.80
2017-09-20T08:18:56.579Z,68.30
2017-09-20T08:21:25.439Z,68.90
2017-09-20T08:23:53.541Z,69.70
2017-09-20T08:26:22.385Z,71.20
2017-09-20T08:28:50.495Z,71.20
2017-09-20T08:31:19.356Z,72.20
2017-09-20T08:33:47.842Z,70.70
2017-09-20T08:36:15.959Z,69.70
2017-09-20T08:38:44.808Z,70.50
2017-09-20T08:41:12.889Z,70.50
2017-09-20T08:43:42.502Z,71.30
2017-09-20T08:46:10.591Z,71.70
2017-09-20T08:48:39.462Z,72.00
2017-09-20T08:51:07.972Z,71.70
2017-09-20T08:53:36.819Z,72.10
2017-09-20T08:56:05.338Z,71.10
2017-09-20T08:58:34.189Z,69.20
2017-09-20T09:01:02.298Z,69.80
2017-09-20T09:03:31.150Z,69.00
2017-09-20T09:05:59.261Z,68.70
2017-09-20T09:08:28.118Z,67.10
2017-09-20T09:10:56.603Z,67.50
2017-09-20T09:13:26.226Z,67.40
2017-09-20T09:15:54.306Z,65.90
2017-09-20T09:18:23.162Z,66.80
2017-09-20T09:20:51.662Z,65.80
2017-09-20T09:23:19.745Z,64.30
2017-09-20T09:25:47.872Z,63.40
2017-09-20T09:28:15.955Z,63.30
2017-09-20T09:30:44.429Z,62.70
2017-09-20T09:33:12.539Z,59.70
2017-09-20T09:35:40.686Z,58.00
2017-09-20T09:38:08.770Z,55.10
2017-09-20T09:40:36.863Z,55.00
2017-09-20T09:43:04.970Z,54.10
2017-09-20T09:45:33.053Z,52.60
2017-09-20T09:48:02.307Z,53.70
2017-09-20T09:50:30.390Z,54.00
2017-09-20T09:52:59.241Z,53.40
2017-09-20T09:55:27.354Z,50.50
2017-09-20T09:57:56.215Z,45.30
2017-09-20T10:00:24.293Z,44.80
2017-09-20T10:02:52.403Z,45.10
2017-09-20T10:05:20.485Z,46.70
2017-09-20T10:07:48.590Z,48.50
2017-09-20T10:10:17.466Z,47.10
2017-09-20T10:12:46.687Z,47.40
2017-09-20T10:15:14.775Z,45.20
2017-09-20T10:17:43.293Z,46.80
2017-09-20T10:20:11.387Z,46.50
2017-09-20T10:22:39.466Z,46.50
2017-09-20T10:25:07.567Z,47.20
2017-09-20T10:27:35.675Z,47.80
2017-09-20T10:30:04.310Z,48.50
2017-09-20T10:32:32.418Z,47.00
2017-09-20T10:35:00.507Z,45.60
2017-09-20T10:37:29.381Z,45.30
2017-09-20T10:39:57.893Z,42.00
2017-09-20T10:42:25.977Z,43.20
2017-09-20T10:44:54.063Z,43.00
2017-09-20T10:47:22.184Z,44.10
2017-09-20T10:49:51.039Z,44.80
2017-09-20T10:52:19.146Z,43.10
2017-09-20T10:54:48.003Z,43.50
2017-09-20T10:57:16.094Z,42.50
2017-09-20T10:59:44.206Z,40.90
2017-09-20T11:02:12.293Z,40.00
2017-09-20T11:04:40.486Z,40.10
2017-09-20T11:07:08.559Z,38.90
2017-09-20T11:09:37.766Z,37.50
2017-09-20T11:12:06.634Z,37.40
2017-09-20T11:14:34.722Z,39.30
2017-09-20T11:17:03.223Z,38.90
2017-09-20T11:19:31.301Z,40.40
2017-09-20T11:21:59.444Z,40.90
2017-09-20T11:24:27.502Z,40.40
2017-09-20T11:26:55.594Z,40.00
2017-09-20T11:29:23.690Z,39.30
2017-09-20T11:31:51.773Z,34.40
2017-09-20T11:34:20.286Z,33.10
2017-09-20T11:36:48.403Z,28.60
2017-09-20T11:39:16.510Z,30.10
2017-09-20T11:41:45.378Z,33.00
2017-09-20T11:44:13.473Z,33.80
2017-09-20T11:46:42.342Z,35.60
2017-09-20T11:49:10.426Z,37.20
2017-09-20T11:51:38.941Z,38.00
2017-09-20T11:54:07.032Z,38.80
2017-09-20T11:56:35.119Z,40.30
2017-09-20T11:59:03.227Z,38.10
2017-09-20T12:01:31.309Z,36.90
2017-09-20T12:04:00.186Z,37.90
2017-09-20T12:06:28.269Z,38.10
2017-09-20T12:08:56.753Z,38.20
2017-09-20T12:11:25.627Z,38.50
2017-09-20T12:13:53.739Z,40.20
2017-09-20T12:16:22.623Z,42.40
2017-09-20T12:18:51.466Z,42.40
2017-09-20T12:21:19.949Z,42.40
2017-09-20T12:23:48.067Z,42.00
2017-09-20T12:26:16.150Z,42.50
2017-09-20T12:28:44.349Z,40.60
2017-09-20T12:31:12.805Z,42.20
2017-09-20T12:33:41.658Z,41.70
2017-09-20T12:36:10.538Z,41.80
2017-09-20T12:38:38.622Z,39.10
2017-09-20T12:41:07.102Z,38.90
2017-09-20T12:43:35.991Z,39.50
2017-09-20T12:46:04.078Z,41.40
2017-09-20T12:48:32.943Z,42.70
2017-09-20T12:51:01.434Z,42.50
2017-09-20T12:53:29.518Z,43.60
2017-09-20T12:55:58.402Z,44.80
2017-09-20T12:58:27.253Z,42.70
2017-09-20T13:00:55.344Z,41.30
2017-09-20T13:03:23.456Z,42.10
2017-09-20T13:05:52.322Z,41.10
2017-09-20T13:08:20.451Z,39.50
2017-09-20T13:10:48.534Z,38.30
2017-09-20T13:13:16.622Z,36.70
2017-09-20T13:15:44.725Z,37.80
2017-09-20T13:18:13.570Z,38.90
2017-09-20T13:20:41.682Z,39.30
2017-09-20T13:23:10.558Z,39.10
2017-09-20T13:25:39.043Z,40.20
2017-09-20T13:28:07.131Z,41.30
2017-09-20T13:30:35.994Z,40.40
2017-09-20T13:33:04.077Z,40.30
2017-09-20T13:35:32.222Z,41.20
2017-09-20T13:38:01.053Z,39.40
2017-09-20T13:40:29.910Z,34.80
2017-09-20T13:42:58.022Z,28.00
2017-09-20T13:45:26.875Z,27.30
2017-09-20T13:47:55.755Z,28.80
2017-09-20T13:50:23.842Z,32.90
2017-09-20T13:52:51.923Z,35.30
2017-09-20T13:55:20.006Z,37.60
2017-09-20T13:57:48.507Z,40.50
2017-09-20T14:00:17.377Z,39.20
2017-09-20T14:02:45.857Z,32.20
2017-09-20T14:05:14.373Z,27.60
2017-09-20T14:07:42.463Z,27.30
2017-09-20T14:10:12.738Z,28.30
2017-09-20T14:12:41.217Z,29.80
2017-09-20T14:15:09.306Z,29.80
2017-09-20T14:17:38.184Z,33.60
2017-09-20T14:20:06.274Z,33.70
2017-09-20T14:22:35.122Z,36.10
2017-09-20T14:25:03.264Z,37.10
2017-09-20T14:27:31.342Z,38.60
2017-09-20T14:29:59.428Z,39.30
2017-09-20T14:32:27.530Z,39.80
2017-09-20T14:34:55.646Z,41.80
2017-09-20T14:37:23.730Z,40.60
2017-09-20T14:39:51.818Z,41.80
2017-09-20T14:42:19.925Z,42.90
2017-09-20T14:44:48.019Z,43.50
2017-09-20T14:47:16.889Z,45.30
2017-09-20T14:49:44.975Z,45.60
2017-09-20T14:52:13.850Z,45.60
2017-09-20T14:54:41.933Z,46.60
2017-09-20T14:57:10.806Z,47.00
2017-09-20T14:59:38.895Z,47.20
2017-09-20T15:02:07.775Z,47.70
2017-09-20T15:04:35.854Z,47.70
2017-09-20T15:07:04.703Z,50.90
2017-09-20T15:09:32.814Z,52.40
2017-09-20T15:12:01.671Z,53.40
2017-09-20T15:14:29.750Z,50.40
2017-09-20T15:16:57.860Z,52.10
2017-09-20T15:19:26.701Z,52.60
2017-09-20T15:21:54.805Z,52.50
2017-09-20T15:24:23.282Z,55.10
2017-09-20T15:26:51.399Z,55.10
2017-09-20T15:29:19.485Z,48.80
2017-09-20T15:31:47.561Z,48.30
2017-09-20T15:34:15.671Z,43.30
2017-09-20T15:36:43.768Z,36.30
2017-09-20T15:39:12.619Z,35.20
2017-09-20T15:41:40.727Z,35.60
2017-09-20T15:44:09.578Z,40.00
2017-09-20T15:46:37.689Z,39.90
2017-09-20T15:49:06.545Z,43.30
2017-09-20T15:51:34.625Z,44.10
2017-09-20T15:54:02.726Z,43.50
2017-09-20T15:56:31.213Z,45.10
2017-09-20T15:59:00.087Z,45.70
2017-09-20T16:01:28.161Z,44.30
2017-09-20T16:03:56.638Z,44.30
2017-09-20T16:06:24.746Z,44.90
2017-09-20T16:08:53.615Z,46.90
2017-09-20T16:11:22.462Z,47.60
2017-09-20T16:13:50.542Z,49.80
2017-09-20T16:16:18.655Z,49.20
2017-09-20T16:18:47.498Z,52.00
2017-09-20T16:21:15.972Z,50.80
2017-09-20T16:23:44.082Z,51.00
2017-09-20T16:26:12.156Z,48.60
2017-09-20T16:28:40.225Z,48.90
2017-09-20T16:31:08.331Z,44.50
2017-09-20T16:33:36.437Z,46.20
2017-09-20T16:36:04.526Z,45.40
2017-09-20T16:38:32.601Z,45.50
2017-09-20T16:41:00.710Z,46.90
2017-09-20T16:43:29.569Z,47.30
2017-09-20T16:45:57.665Z,47.50
2017-09-20T16:48:26.502Z,49.20
2017-09-20T16:50:54.594Z,49.30
2017-09-20T16:53:22.671Z,51.00
2017-09-20T16:55:52.274Z,52.50
2017-09-20T16:58:20.341Z,52.70
2017-09-20T17:00:48.451Z,54.60
2017-09-20T17:03:17.296Z,54.80
2017-09-20T17:05:45.766Z,55.90
2017-09-20T17:08:13.857Z,56.30
2017-09-20T17:10:41.930Z,57.60
2017-09-20T17:13:10.050Z,60.50
2017-09-20T17:15:38.515Z,60.90
2017-09-20T17:18:06.606Z,60.90
2017-09-20T17:20:35.438Z,63.20
2017-09-20T17:23:03.531Z,64.60
2017-09-20T17:25:31.602Z,64.70
2017-09-20T17:28:00.094Z,65.70
2017-09-20T17:30:28.174Z,66.40
2017-09-20T17:32:56.270Z,68.00
2017-09-20T17:35:24.350Z,70.00
2017-09-20T17:37:52.816Z,69.90
2017-09-20T17:40:21.668Z,71.20
2017-09-20T17:42:49.741Z,71.50
2017-09-20T17:45:19.342Z,73.10
2017-09-20T17:47:47.462Z,72.30
2017-09-20T17:50:16.301Z,73.20
2017-09-20T17:52:44.378Z,73.20
2017-09-20T17:55:13.238Z,73.80
2017-09-20T17:57:42.490Z,74.10
2017-09-20T18:00:10.574Z,73.40
2017-09-20T18:02:39.414Z,73.90
2017-09-20T18:05:07.506Z,73.20
2017-09-20T18:07:36.729Z,73.70
2017-09-20T18:10:05.168Z,74.20
2017-09-20T18:12:33.266Z,73.50
2017-09-20T18:15:01.747Z,74.40
2017-09-20T18:17:29.851Z,74.20
2017-09-20T18:19:58.689Z,75.80
2017-09-20T18:22:27.570Z,75.00
2017-09-20T18:24:55.636Z,77.00
2017-09-20T18:27:23.817Z,75.30
2017-09-20T18:29:52.650Z,76.00
2017-09-20T18:32:21.122Z,74.80
2017-09-20T18:34:49.202Z,74.10
2017-09-20T18:37:18.075Z,77.40
2017-09-20T18:39:46.550Z,76.70
2017-09-20T18:42:14.651Z,76.70
2017-09-20T18:44:43.530Z,77.40
2017-09-20T18:47:11.622Z,77.00
2017-09-20T18:49:40.466Z,76.60
2017-09-20T18:52:09.351Z,76.60
2017-09-20T18:54:37.450Z,76.30
2017-09-20T18:57:05.527Z,75.80
2017-09-20T18:59:33.627Z,75.30
2017-09-20T19:02:02.476Z,75.20
2017-09-20T19:04:30.583Z,74.50
2017-09-20T19:06:59.425Z,75.10
2017-09-20T19:09:27.526Z,75.70
2017-09-20T19:11:55.607Z,76.60
2017-09-20T19:14:24.478Z,77.60
2017-09-20T19:16:52.581Z,76.50
2017-09-20T19:19:21.442Z,76.30
2017-09-20T19:21:49.522Z,75.40
2017-09-20T19:24:18.027Z,75.80
2017-09-20T19:26:46.501Z,75.80
2017-09-20T19:29:15.386Z,76.50
2017-09-20T19:31:44.247Z,76.80
2017-09-20T19:34:12.326Z,76.30
2017-09-20T19:36:40.430Z,76.10
2017-09-20T19:39:09.300Z,78.40
2017-09-20T19:41:38.945Z,79.10
2017-09-20T19:44:07.418Z,78.70
2017-09-20T19:46:35.507Z,78.70
2017-09-20T19:49:04.430Z,79.30
2017-09-20T19:51:32.514Z,79.20
2017-09-20T19:54:00.609Z,78.90
2017-09-20T19:56:29.112Z,78.30
2017-09-20T19:58:57.194Z,77.00
2017-09-20T20:01:25.709Z,76.70
2017-09-20T20:03:53.816Z,76.70
2017-09-20T20:06:22.283Z,77.00
2017-09-20T20:08:50.782Z,77.70
2017-09-20T20:11:19.658Z,78.60
2017-09-20T20:13:48.150Z,78.10
2017-09-20T20:16:16.998Z,79.30
2017-09-20T20:18:45.115Z,78.90
2017-09-20T20:21:13.967Z,81.10
2017-09-20T20:23:42.071Z,80.10
2017-09-20T20:26:10.177Z,79.00
2017-09-20T20:28:38.267Z,78.80
2017-09-20T20:31:06.374Z,79.20
2017-09-20T20:33:34.458Z,79.20
2017-09-20T20:36:02.542Z,79.00
2017-09-20T20:38:31.418Z,79.60
2017-09-20T20:40:59.898Z,80.50
2017-09-20T20:43:27.983Z,82.10
2017-09-20T20:45:56.494Z,79.20
2017-09-20T20:48:24.577Z,78.50
2017-09-20T20:50:52.696Z,79.00
2017-09-20T20:53:21.175Z,75.80
2017-09-20T20:55:49.254Z,76.30
2017-09-20T20:58:17.372Z,76.30
2017-09-20T21:00:45.478Z,74.90
2017-09-20T21:03:13.576Z,74.90
2017-09-20T21:05:42.467Z,74.00
2017-09-20T21:08:10.567Z,74.20
2017-09-20T21:10:38.658Z,75.20
2017-09-20T21:13:07.162Z,74.00
2017-09-20T21:15:35.253Z,77.40
2017-09-20T21:18:03.826Z,78.10
2017-09-20T21:20:31.967Z,75.20
2017-09-20T21:23:00.051Z,75.80
2017-09-20T21:25:28.146Z,75.80
2017-09-20T21:27:56.645Z,75.20
2017-09-20T21:30:24.798Z,74.30
2017-09-20T21:32:52.974Z,78.80
2017-09-20T21:35:21.489Z,75.50
2017-09-20T21:37:49.642Z,75.20
2017-09-20T21:40:17.742Z,75.20
2017-09-20T21:42:46.285Z,73.90
2017-09-20T21:45:14.866Z,72.80
2017-09-20T21:47:43.453Z,77.90
2017-09-20T21:50:11.538Z,77.40
2017-09-20T21:52:40.038Z,78.10
2017-09-20T21:55:08.903Z,77.30
2017-09-20T21:57:37.121Z,77.20
2017-09-20T22:00:05.230Z,76.40
2017-09-20T22:02:33.419Z,77.10
2017-09-20T22:05:01.594Z,78.60
2017-09-20T22:07:29.770Z,77.00
2017-09-20T22:09:57.853Z,79.20
2017-09-20T22:12:25.966Z,77.50
2017-09-20T22:14:53.574Z,74.30
2017-09-20T22:17:33.489Z,75.50
2017-09-20T22:20:13.681Z,76.80
2017-09-20T22:22:53.743Z,77.30
2017-09-20T22:25:33.742Z,76.40
2017-09-20T22:28:01.874Z,76.30
2017-09-20T22:30:30.030Z,76.30
2017-09-20T22:32:58.141Z,74.40
2017-09-20T22:35:27.107Z,75.60
2017-09-20T22:37:55.281Z,75.50
2017-09-20T22:40:23.452Z,73.10
2017-09-20T22:42:51.534Z,74.40
2017-09-20T22:45:19.638Z,76.20
2017-09-20T22:47:47.722Z,73.60
2017-09-20T22:50:15.841Z,74.10
2017-09-20T22:52:43.932Z,75.60
2017-09-20T22:55:12.018Z,76.70
2017-09-20T22:57:40.975Z,77.60
2017-09-20T23:00:09.061Z,77.60
2017-09-20T23:02:37.226Z,75.70
2017-09-20T23:05:05.390Z,77.10
2017-09-20T23:07:33.474Z,75.50
2017-09-20T23:10:01.643Z,75.10
2017-09-20T23:12:29.823Z,75.60
2017-09-20T23:14:57.906Z,76.80
2017-09-20T23:17:26.066Z,75.70
2017-09-20T23:19:54.155Z,76.60
2017-09-20T23:22:22.237Z,74.50
2017-09-20T23:24:50.738Z,75.40
2017-09-20T23:27:18.854Z,76.90
2017-09-20T23:29:47.038Z,75.70
2017-09-20T23:32:15.214Z,79.30
2017-09-20T23:34:43.790Z,78.20
2017-09-20T23:37:11.908Z,77.20
2017-09-20T23:39:40.859Z,80.30
2017-09-20T23:42:09.029Z,79.90
2017-09-20T23:44:37.162Z,80.10
2017-09-20T23:47:05.251Z,80.20
2017-09-20T23:49:33.346Z,79.60
2017-09-20T23:52:01.461Z,79.00
2017-09-20T23:54:30.333Z,79.20
2017-09-20T23:56:58.406Z,79.30
2017-09-20T23:59:26.562Z,79.00
